sensor_id;sensor_type;location;lat;lon;timestamp;temperature;humidity
2571;DHT22;1295;51.130;6.732;2023-07-31T00:01:08;17.80;99.90
2571;DHT22;1295;51.130;6.732;2023-07-31T00:03:34;18.00;99.90
2571;DHT22;1295;51.130;6.732;2023-07-31T00:06:00;18.10;99.90
2571;DHT22;1295;51.130;6.732;2023-07-31T00:08:25;18.10;99.90
2571;DHT22;1295;51.130;6.732;2023-07-31T00:10:51;18.00;99.90
2571;DHT22;1295;51.130;6.732;2023-07-31T00:13:17;18.20;99.90
2571;DHT22;1295;51.130;6.732;2023-07-31T00:15:43;18.10;99.90
2571;DHT22;1295;51.130;6.732;2023-07-31T00:18:08;18.30;99.90
2571;DHT22;1295;51.130;6.732;2023-07-31T00:20:34;18.30;99.90
2571;DHT22;1295;51.130;6.732;2023-07-31T00:23:00;18.10;99.90
2571;DHT22;1295;51.130;6.732;2023-07-31T00:25:26;18.10;99.90
2571;DHT22;1295;51.130;6.732;2023-07-31T00:27:52;18.10;99.90
2571;DHT22;1295;51.130;6.732;2023-07-31T00:30:17;18.30;99.90
2571;DHT22;1295;51.130;6.732;2023-07-31T00:32:43;17.90;99.90
2571;DHT22;1295;51.130;6.732;2023-07-31T00:35:09;18.00;99.90
2571;DHT22;1295;51.130;6.732;2023-07-31T00:37:34;18.10;99.90
2571;DHT22;1295;51.130;6.732;2023-07-31T00:40:00;18.10;99.90
2571;DHT22;1295;51.130;6.732;2023-07-31T00:42:26;18.30;99.90
2571;DHT22;1295;51.130;6.732;2023-07-31T00:44:52;18.30;99.90
2571;DHT22;1295;51.130;6.732;2023-07-31T00:47:17;18.30;99.90
2571;DHT22;1295;51.130;6.732;2023-07-31T00:49:43;18.40;99.90
2571;DHT22;1295;51.130;6.732;2023-07-31T00:52:09;18.40;99.90
2571;DHT22;1295;51.130;6.732;2023-07-31T00:54:34;18.00;99.90
2571;DHT22;1295;51.130;6.732;2023-07-31T00:57:00;18.20;99.90
2571;DHT22;1295;51.130;6.732;2023-07-31T00:59:26;18.40;99.90
2571;DHT22;1295;51.130;6.732;2023-07-31T01:01:52;18.40;99.90
2571;DHT22;1295;51.130;6.732;2023-07-31T01:04:18;18.00;99.90
2571;DHT22;1295;51.130;6.732;2023-07-31T01:06:54;18.50;99.90
2571;DHT22;1295;51.130;6.732;2023-07-31T01:09:22;18.50;99.90
2571;DHT22;1295;51.130;6.732;2023-07-31T01:11:48;18.20;99.90
2571;DHT22;1295;51.130;6.732;2023-07-31T01:14:12;18.30;99.90
2571;DHT22;1295;51.130;6.732;2023-07-31T01:16:38;18.30;99.90
2571;DHT22;1295;51.130;6.732;2023-07-31T01:19:03;18.20;99.90
2571;DHT22;1295;51.130;6.732;2023-07-31T01:22:02;18.20;99.90
2571;DHT22;1295;51.130;6.732;2023-07-31T01:24:29;18.10;99.90
2571;DHT22;1295;51.130;6.732;2023-07-31T01:26:56;18.20;99.90
2571;DHT22;1295;51.130;6.732;2023-07-31T01:29:23;18.20;99.90
2571;DHT22;1295;51.130;6.732;2023-07-31T01:31:46;18.20;99.90
2571;DHT22;1295;51.130;6.732;2023-07-31T01:34:12;18.30;99.90
2571;DHT22;1295;51.130;6.732;2023-07-31T01:36:38;18.30;99.90
2571;DHT22;1295;51.130;6.732;2023-07-31T01:39:04;18.10;99.90
2571;DHT22;1295;51.130;6.732;2023-07-31T01:41:29;18.10;99.90
2571;DHT22;1295;51.130;6.732;2023-07-31T01:43:55;18.40;99.90
2571;DHT22;1295;51.130;6.732;2023-07-31T01:46:21;18.20;99.90
2571;DHT22;1295;51.130;6.732;2023-07-31T01:48:47;18.20;99.90
2571;DHT22;1295;51.130;6.732;2023-07-31T01:51:12;18.10;99.90
2571;DHT22;1295;51.130;6.732;2023-07-31T01:53:38;18.30;99.90
2571;DHT22;1295;51.130;6.732;2023-07-31T01:56:04;18.30;99.90
2571;DHT22;1295;51.130;6.732;2023-07-31T01:58:30;18.30;99.90
2571;DHT22;1295;51.130;6.732;2023-07-31T02:00:56;17.90;99.90
2571;DHT22;1295;51.130;6.732;2023-07-31T02:03:22;18.00;99.90
2571;DHT22;1295;51.130;6.732;2023-07-31T02:05:48;18.30;99.90
2571;DHT22;1295;51.130;6.732;2023-07-31T02:08:14;18.60;99.90
2571;DHT22;1295;51.130;6.732;2023-07-31T02:10:40;18.50;99.90
2571;DHT22;1295;51.130;6.732;2023-07-31T02:13:06;18.60;99.90
2571;DHT22;1295;51.130;6.732;2023-07-31T02:15:32;18.10;99.90
2571;DHT22;1295;51.130;6.732;2023-07-31T02:17:58;18.00;99.90
2571;DHT22;1295;51.130;6.732;2023-07-31T02:20:24;18.60;99.90
2571;DHT22;1295;51.130;6.732;2023-07-31T02:22:50;18.30;99.90
2571;DHT22;1295;51.130;6.732;2023-07-31T02:25:16;18.30;99.90
2571;DHT22;1295;51.130;6.732;2023-07-31T02:27:41;18.30;99.90
2571;DHT22;1295;51.130;6.732;2023-07-31T02:30:08;18.40;99.90
2571;DHT22;1295;51.130;6.732;2023-07-31T02:32:34;18.10;99.90
2571;DHT22;1295;51.130;6.732;2023-07-31T02:34:59;18.50;99.90
2571;DHT22;1295;51.130;6.732;2023-07-31T02:37:26;18.30;99.90
2571;DHT22;1295;51.130;6.732;2023-07-31T02:39:51;18.30;99.90
2571;DHT22;1295;51.130;6.732;2023-07-31T02:42:17;18.40;99.90
2571;DHT22;1295;51.130;6.732;2023-07-31T02:44:42;18.40;99.90
2571;DHT22;1295;51.130;6.732;2023-07-31T02:47:08;18.20;99.90
2571;DHT22;1295;51.130;6.732;2023-07-31T02:49:34;18.10;99.90
2571;DHT22;1295;51.130;6.732;2023-07-31T02:51:59;17.90;99.90
2571;DHT22;1295;51.130;6.732;2023-07-31T02:54:25;18.20;99.90
2571;DHT22;1295;51.130;6.732;2023-07-31T02:56:51;18.20;99.90
2571;DHT22;1295;51.130;6.732;2023-07-31T02:59:17;18.10;99.90
2571;DHT22;1295;51.130;6.732;2023-07-31T03:01:43;18.10;99.90
2571;DHT22;1295;51.130;6.732;2023-07-31T03:04:09;18.40;99.90
2571;DHT22;1295;51.130;6.732;2023-07-31T03:06:35;18.40;99.90
2571;DHT22;1295;51.130;6.732;2023-07-31T03:09:00;18.30;99.90
2571;DHT22;1295;51.130;6.732;2023-07-31T03:11:26;18.30;99.90
2571;DHT22;1295;51.130;6.732;2023-07-31T03:13:51;18.40;99.90
2571;DHT22;1295;51.130;6.732;2023-07-31T03:16:17;18.50;99.90
2571;DHT22;1295;51.130;6.732;2023-07-31T03:18:43;18.50;99.90
2571;DHT22;1295;51.130;6.732;2023-07-31T03:21:08;18.20;99.90
2571;DHT22;1295;51.130;6.732;2023-07-31T03:23:35;18.40;99.90
2571;DHT22;1295;51.130;6.732;2023-07-31T03:26:01;18.40;99.90
2571;DHT22;1295;51.130;6.732;2023-07-31T03:28:27;18.00;99.90
2571;DHT22;1295;51.130;6.732;2023-07-31T03:30:52;18.00;99.90
2571;DHT22;1295;51.130;6.732;2023-07-31T03:33:18;18.20;99.90
2571;DHT22;1295;51.130;6.732;2023-07-31T03:35:44;18.20;99.90
2571;DHT22;1295;51.130;6.732;2023-07-31T03:38:10;18.20;99.90
2571;DHT22;1295;51.130;6.732;2023-07-31T03:40:36;18.20;99.90
2571;DHT22;1295;51.130;6.732;2023-07-31T03:43:01;18.30;99.90
2571;DHT22;1295;51.130;6.732;2023-07-31T03:45:27;18.20;99.90
2571;DHT22;1295;51.130;6.732;2023-07-31T03:47:52;18.50;99.90
2571;DHT22;1295;51.130;6.732;2023-07-31T03:50:18;18.30;99.90
2571;DHT22;1295;51.130;6.732;2023-07-31T03:52:44;18.60;99.90
2571;DHT22;1295;51.130;6.732;2023-07-31T03:55:10;18.40;99.90
2571;DHT22;1295;51.130;6.732;2023-07-31T03:57:46;18.40;99.90
2571;DHT22;1295;51.130;6.732;2023-07-31T04:00:12;18.70;99.90
2571;DHT22;1295;51.130;6.732;2023-07-31T04:02:37;18.40;99.90
2571;DHT22;1295;51.130;6.732;2023-07-31T04:05:03;18.20;99.90
2571;DHT22;1295;51.130;6.732;2023-07-31T04:07:29;18.10;99.90
2571;DHT22;1295;51.130;6.732;2023-07-31T04:09:56;18.00;99.90
2571;DHT22;1295;51.130;6.732;2023-07-31T04:12:21;18.50;99.90
2571;DHT22;1295;51.130;6.732;2023-07-31T04:14:48;18.60;99.90
2571;DHT22;1295;51.130;6.732;2023-07-31T04:17:14;18.50;99.90
2571;DHT22;1295;51.130;6.732;2023-07-31T04:19:44;18.40;99.90
2571;DHT22;1295;51.130;6.732;2023-07-31T04:22:20;18.40;99.90
2571;DHT22;1295;51.130;6.732;2023-07-31T04:24:46;18.60;99.90
2571;DHT22;1295;51.130;6.732;2023-07-31T04:27:11;18.50;99.90
2571;DHT22;1295;51.130;6.732;2023-07-31T04:29:37;18.70;99.90
2571;DHT22;1295;51.130;6.732;2023-07-31T04:32:03;18.80;99.90
2571;DHT22;1295;51.130;6.732;2023-07-31T04:34:29;18.30;99.90
2571;DHT22;1295;51.130;6.732;2023-07-31T04:36:55;18.40;99.90
2571;DHT22;1295;51.130;6.732;2023-07-31T04:39:20;18.00;99.90
2571;DHT22;1295;51.130;6.732;2023-07-31T04:41:46;17.70;99.90
2571;DHT22;1295;51.130;6.732;2023-07-31T04:44:12;17.70;99.90
2571;DHT22;1295;51.130;6.732;2023-07-31T04:46:37;17.80;99.90
2571;DHT22;1295;51.130;6.732;2023-07-31T04:49:03;17.80;99.90
2571;DHT22;1295;51.130;6.732;2023-07-31T04:51:28;17.70;99.90
2571;DHT22;1295;51.130;6.732;2023-07-31T04:53:55;17.70;99.90
2571;DHT22;1295;51.130;6.732;2023-07-31T04:56:20;17.60;99.90
2571;DHT22;1295;51.130;6.732;2023-07-31T04:58:46;17.80;99.90
2571;DHT22;1295;51.130;6.732;2023-07-31T05:01:11;17.60;99.90
2571;DHT22;1295;51.130;6.732;2023-07-31T05:03:37;17.80;99.90
2571;DHT22;1295;51.130;6.732;2023-07-31T05:06:03;17.70;99.90
2571;DHT22;1295;51.130;6.732;2023-07-31T05:08:28;17.80;99.90
2571;DHT22;1295;51.130;6.732;2023-07-31T05:10:54;17.80;99.90
2571;DHT22;1295;51.130;6.732;2023-07-31T05:13:20;17.90;99.90
2571;DHT22;1295;51.130;6.732;2023-07-31T05:15:46;18.00;99.90
2571;DHT22;1295;51.130;6.732;2023-07-31T05:18:12;17.90;99.90
2571;DHT22;1295;51.130;6.732;2023-07-31T05:20:37;18.00;99.90
2571;DHT22;1295;51.130;6.732;2023-07-31T05:23:03;17.90;99.90
2571;DHT22;1295;51.130;6.732;2023-07-31T05:25:28;18.20;99.90
2571;DHT22;1295;51.130;6.732;2023-07-31T05:27:54;18.00;99.90
2571;DHT22;1295;51.130;6.732;2023-07-31T05:30:20;18.00;99.90
2571;DHT22;1295;51.130;6.732;2023-07-31T05:32:45;17.90;99.90
2571;DHT22;1295;51.130;6.732;2023-07-31T05:35:11;17.90;99.90
2571;DHT22;1295;51.130;6.732;2023-07-31T05:37:37;18.00;99.90
2571;DHT22;1295;51.130;6.732;2023-07-31T05:40:03;18.00;99.90
2571;DHT22;1295;51.130;6.732;2023-07-31T05:42:29;18.10;99.90
2571;DHT22;1295;51.130;6.732;2023-07-31T05:44:55;17.90;99.90
2571;DHT22;1295;51.130;6.732;2023-07-31T05:47:20;18.10;99.90
2571;DHT22;1295;51.130;6.732;2023-07-31T05:49:46;18.20;99.90
2571;DHT22;1295;51.130;6.732;2023-07-31T05:52:11;18.20;99.90
2571;DHT22;1295;51.130;6.732;2023-07-31T05:54:37;18.40;99.90
2571;DHT22;1295;51.130;6.732;2023-07-31T05:57:03;18.40;99.90
2571;DHT22;1295;51.130;6.732;2023-07-31T05:59:29;18.30;99.90
2571;DHT22;1295;51.130;6.732;2023-07-31T06:01:55;18.20;99.90
2571;DHT22;1295;51.130;6.732;2023-07-31T06:04:20;18.10;99.90
2571;DHT22;1295;51.130;6.732;2023-07-31T06:06:46;18.10;99.90
2571;DHT22;1295;51.130;6.732;2023-07-31T06:09:12;18.00;99.90
2571;DHT22;1295;51.130;6.732;2023-07-31T06:11:37;18.30;99.90
2571;DHT22;1295;51.130;6.732;2023-07-31T06:14:03;18.30;99.90
2571;DHT22;1295;51.130;6.732;2023-07-31T06:16:29;18.00;99.90
2571;DHT22;1295;51.130;6.732;2023-07-31T06:18:54;18.00;99.90
2571;DHT22;1295;51.130;6.732;2023-07-31T06:21:20;18.30;99.90
2571;DHT22;1295;51.130;6.732;2023-07-31T06:23:46;18.00;99.90
2571;DHT22;1295;51.130;6.732;2023-07-31T06:26:11;18.00;99.90
2571;DHT22;1295;51.130;6.732;2023-07-31T06:28:37;18.10;99.90
2571;DHT22;1295;51.130;6.732;2023-07-31T06:31:03;18.40;99.90
2571;DHT22;1295;51.130;6.732;2023-07-31T06:33:28;18.40;99.90
2571;DHT22;1295;51.130;6.732;2023-07-31T06:35:54;18.00;99.90
2571;DHT22;1295;51.130;6.732;2023-07-31T06:38:22;17.80;99.90
2571;DHT22;1295;51.130;6.732;2023-07-31T06:40:45;18.10;99.90
2571;DHT22;1295;51.130;6.732;2023-07-31T06:43:11;18.20;99.90
2571;DHT22;1295;51.130;6.732;2023-07-31T06:45:37;18.20;99.90
2571;DHT22;1295;51.130;6.732;2023-07-31T06:48:03;17.90;99.90
2571;DHT22;1295;51.130;6.732;2023-07-31T06:50:30;18.10;99.90
2571;DHT22;1295;51.130;6.732;2023-07-31T06:52:55;18.10;99.90
2571;DHT22;1295;51.130;6.732;2023-07-31T06:55:21;17.80;99.90
2571;DHT22;1295;51.130;6.732;2023-07-31T06:57:48;18.10;99.90
2571;DHT22;1295;51.130;6.732;2023-07-31T07:00:14;18.40;99.90
2571;DHT22;1295;51.130;6.732;2023-07-31T07:02:40;18.50;99.90
2571;DHT22;1295;51.130;6.732;2023-07-31T07:05:10;18.10;99.90
2571;DHT22;1295;51.130;6.732;2023-07-31T07:07:36;18.20;99.90
2571;DHT22;1295;51.130;6.732;2023-07-31T07:10:02;18.30;99.90
2571;DHT22;1295;51.130;6.732;2023-07-31T07:12:30;18.30;99.90
2571;DHT22;1295;51.130;6.732;2023-07-31T07:14:56;18.20;99.90
2571;DHT22;1295;51.130;6.732;2023-07-31T07:17:22;18.20;99.90
2571;DHT22;1295;51.130;6.732;2023-07-31T07:19:48;18.40;99.90
2571;DHT22;1295;51.130;6.732;2023-07-31T07:22:14;18.40;99.90
2571;DHT22;1295;51.130;6.732;2023-07-31T07:24:39;18.20;99.90
2571;DHT22;1295;51.130;6.732;2023-07-31T07:27:05;18.20;99.90
2571;DHT22;1295;51.130;6.732;2023-07-31T07:29:31;18.10;99.90
2571;DHT22;1295;51.130;6.732;2023-07-31T07:31:57;18.00;99.90
2571;DHT22;1295;51.130;6.732;2023-07-31T07:34:23;18.30;99.90
2571;DHT22;1295;51.130;6.732;2023-07-31T07:36:48;18.30;99.90
2571;DHT22;1295;51.130;6.732;2023-07-31T07:39:13;18.20;99.90
2571;DHT22;1295;51.130;6.732;2023-07-31T07:41:39;17.90;99.90
2571;DHT22;1295;51.130;6.732;2023-07-31T07:44:05;18.20;99.90
2571;DHT22;1295;51.130;6.732;2023-07-31T07:46:31;18.20;99.90
2571;DHT22;1295;51.130;6.732;2023-07-31T07:48:57;18.20;99.90
2571;DHT22;1295;51.130;6.732;2023-07-31T07:51:22;18.20;99.90
2571;DHT22;1295;51.130;6.732;2023-07-31T07:53:48;17.90;99.90
2571;DHT22;1295;51.130;6.732;2023-07-31T07:56:14;17.60;99.90
2571;DHT22;1295;51.130;6.732;2023-07-31T07:58:39;17.80;99.90
2571;DHT22;1295;51.130;6.732;2023-07-31T08:01:05;17.90;99.90
2571;DHT22;1295;51.130;6.732;2023-07-31T08:03:31;18.00;99.90
2571;DHT22;1295;51.130;6.732;2023-07-31T08:05:58;17.70;99.90
2571;DHT22;1295;51.130;6.732;2023-07-31T08:08:24;17.90;99.90
2571;DHT22;1295;51.130;6.732;2023-07-31T08:10:50;17.80;99.90
2571;DHT22;1295;51.130;6.732;2023-07-31T08:13:16;17.80;99.90
2571;DHT22;1295;51.130;6.732;2023-07-31T08:15:42;17.80;99.90
2571;DHT22;1295;51.130;6.732;2023-07-31T08:18:08;17.80;99.90
2571;DHT22;1295;51.130;6.732;2023-07-31T08:20:33;18.00;99.90
2571;DHT22;1295;51.130;6.732;2023-07-31T08:22:59;18.00;99.90
2571;DHT22;1295;51.130;6.732;2023-07-31T08:25:24;18.00;99.90
2571;DHT22;1295;51.130;6.732;2023-07-31T08:27:50;18.10;99.90
2571;DHT22;1295;51.130;6.732;2023-07-31T08:30:16;18.30;99.90
2571;DHT22;1295;51.130;6.732;2023-07-31T08:32:41;18.10;99.90
2571;DHT22;1295;51.130;6.732;2023-07-31T08:35:07;18.20;99.90
2571;DHT22;1295;51.130;6.732;2023-07-31T08:37:33;18.10;99.90
2571;DHT22;1295;51.130;6.732;2023-07-31T08:39:58;17.90;99.90
2571;DHT22;1295;51.130;6.732;2023-07-31T08:42:25;18.20;99.90
2571;DHT22;1295;51.130;6.732;2023-07-31T08:44:50;18.20;99.90
2571;DHT22;1295;51.130;6.732;2023-07-31T08:47:16;18.20;99.90
2571;DHT22;1295;51.130;6.732;2023-07-31T08:49:42;18.20;99.90
2571;DHT22;1295;51.130;6.732;2023-07-31T08:52:08;18.30;99.90
2571;DHT22;1295;51.130;6.732;2023-07-31T08:54:34;18.30;99.90
2571;DHT22;1295;51.130;6.732;2023-07-31T08:57:00;18.20;99.90
2571;DHT22;1295;51.130;6.732;2023-07-31T08:59:28;18.30;99.90
2571;DHT22;1295;51.130;6.732;2023-07-31T09:01:53;18.20;99.90
2571;DHT22;1295;51.130;6.732;2023-07-31T09:04:18;18.20;99.90
2571;DHT22;1295;51.130;6.732;2023-07-31T09:06:43;18.10;99.90
2571;DHT22;1295;51.130;6.732;2023-07-31T09:09:09;18.20;99.90
2571;DHT22;1295;51.130;6.732;2023-07-31T09:11:34;17.90;99.90
2571;DHT22;1295;51.130;6.732;2023-07-31T09:14:00;18.00;99.90
2571;DHT22;1295;51.130;6.732;2023-07-31T09:16:28;17.80;99.90
2571;DHT22;1295;51.130;6.732;2023-07-31T09:18:54;17.80;99.90
2571;DHT22;1295;51.130;6.732;2023-07-31T09:21:20;18.20;99.90
2571;DHT22;1295;51.130;6.732;2023-07-31T09:23:46;18.20;99.90
2571;DHT22;1295;51.130;6.732;2023-07-31T09:26:11;18.10;99.90
2571;DHT22;1295;51.130;6.732;2023-07-31T09:28:37;18.20;99.90
2571;DHT22;1295;51.130;6.732;2023-07-31T09:31:03;18.30;99.90
2571;DHT22;1295;51.130;6.732;2023-07-31T09:33:30;18.30;99.90
2571;DHT22;1295;51.130;6.732;2023-07-31T09:38:40;18.20;99.90
2571;DHT22;1295;51.130;6.732;2023-07-31T09:41:11;18.20;99.90
2571;DHT22;1295;51.130;6.732;2023-07-31T09:43:37;18.30;99.90
2571;DHT22;1295;51.130;6.732;2023-07-31T09:46:02;18.00;99.90
2571;DHT22;1295;51.130;6.732;2023-07-31T09:48:28;18.10;99.90
2571;DHT22;1295;51.130;6.732;2023-07-31T09:50:54;18.00;99.90
2571;DHT22;1295;51.130;6.732;2023-07-31T09:53:19;18.20;99.90
2571;DHT22;1295;51.130;6.732;2023-07-31T09:55:45;18.30;99.90
2571;DHT22;1295;51.130;6.732;2023-07-31T09:58:11;18.30;99.90
2571;DHT22;1295;51.130;6.732;2023-07-31T10:00:36;18.30;99.90
2571;DHT22;1295;51.130;6.732;2023-07-31T10:03:04;18.30;99.90
2571;DHT22;1295;51.130;6.732;2023-07-31T10:05:30;18.30;99.90
2571;DHT22;1295;51.130;6.732;2023-07-31T10:07:55;18.20;99.90
2571;DHT22;1295;51.130;6.732;2023-07-31T10:10:21;18.20;99.90
2571;DHT22;1295;51.130;6.732;2023-07-31T10:12:46;18.20;99.90
2571;DHT22;1295;51.130;6.732;2023-07-31T10:15:13;18.20;99.90
2571;DHT22;1295;51.130;6.732;2023-07-31T10:17:38;18.20;99.90
2571;DHT22;1295;51.130;6.732;2023-07-31T10:20:05;18.20;99.90
2571;DHT22;1295;51.130;6.732;2023-07-31T10:22:31;18.30;99.90
2571;DHT22;1295;51.130;6.732;2023-07-31T10:24:57;18.30;99.90
2571;DHT22;1295;51.130;6.732;2023-07-31T10:27:23;18.40;99.90
2571;DHT22;1295;51.130;6.732;2023-07-31T10:29:48;18.40;99.90
2571;DHT22;1295;51.130;6.732;2023-07-31T10:32:14;18.50;99.90
2571;DHT22;1295;51.130;6.732;2023-07-31T10:34:40;18.40;99.90
2571;DHT22;1295;51.130;6.732;2023-07-31T10:39:43;18.60;99.90
2571;DHT22;1295;51.130;6.732;2023-07-31T10:42:12;18.60;99.90
2571;DHT22;1295;51.130;6.732;2023-07-31T10:44:37;18.70;99.90
2571;DHT22;1295;51.130;6.732;2023-07-31T10:47:03;18.70;99.90
2571;DHT22;1295;51.130;6.732;2023-07-31T10:49:29;18.70;99.90
2571;DHT22;1295;51.130;6.732;2023-07-31T10:51:55;18.60;99.90
2571;DHT22;1295;51.130;6.732;2023-07-31T10:54:21;18.70;99.90
2571;DHT22;1295;51.130;6.732;2023-07-31T10:56:49;18.70;99.90
2571;DHT22;1295;51.130;6.732;2023-07-31T10:59:13;18.60;99.90
2571;DHT22;1295;51.130;6.732;2023-07-31T11:01:54;18.70;99.90
2571;DHT22;1295;51.130;6.732;2023-07-31T11:04:23;18.70;99.90
2571;DHT22;1295;51.130;6.732;2023-07-31T11:06:56;18.70;99.90
2571;DHT22;1295;51.130;6.732;2023-07-31T11:09:22;18.90;99.90
2571;DHT22;1295;51.130;6.732;2023-07-31T11:11:47;18.80;99.90
2571;DHT22;1295;51.130;6.732;2023-07-31T11:14:13;18.90;99.90
2571;DHT22;1295;51.130;6.732;2023-07-31T11:16:38;18.90;99.90
2571;DHT22;1295;51.130;6.732;2023-07-31T11:19:04;19.10;99.90
2571;DHT22;1295;51.130;6.732;2023-07-31T11:21:30;19.10;99.90
2571;DHT22;1295;51.130;6.732;2023-07-31T11:23:57;19.10;99.90
2571;DHT22;1295;51.130;6.732;2023-07-31T11:26:22;19.10;99.90
2571;DHT22;1295;51.130;6.732;2023-07-31T11:28:48;19.20;99.90
2571;DHT22;1295;51.130;6.732;2023-07-31T11:31:13;19.30;99.90
2571;DHT22;1295;51.130;6.732;2023-07-31T11:33:39;19.30;99.90
2571;DHT22;1295;51.130;6.732;2023-07-31T11:36:04;19.40;99.90
2571;DHT22;1295;51.130;6.732;2023-07-31T11:38:31;19.30;99.90
2571;DHT22;1295;51.130;6.732;2023-07-31T11:40:56;19.30;99.90
2571;DHT22;1295;51.130;6.732;2023-07-31T11:43:21;19.40;99.90
2571;DHT22;1295;51.130;6.732;2023-07-31T11:45:48;19.30;99.90
2571;DHT22;1295;51.130;6.732;2023-07-31T11:48:21;19.40;99.90
2571;DHT22;1295;51.130;6.732;2023-07-31T11:50:46;19.40;99.90
2571;DHT22;1295;51.130;6.732;2023-07-31T11:53:12;19.30;99.90
2571;DHT22;1295;51.130;6.732;2023-07-31T11:55:38;19.30;99.90
2571;DHT22;1295;51.130;6.732;2023-07-31T11:58:04;19.20;99.90
2571;DHT22;1295;51.130;6.732;2023-07-31T12:00:29;19.20;99.90
2571;DHT22;1295;51.130;6.732;2023-07-31T12:02:55;19.20;99.90
2571;DHT22;1295;51.130;6.732;2023-07-31T12:05:21;19.30;99.90
2571;DHT22;1295;51.130;6.732;2023-07-31T12:07:50;19.30;99.90
2571;DHT22;1295;51.130;6.732;2023-07-31T12:10:23;19.30;99.90
2571;DHT22;1295;51.130;6.732;2023-07-31T12:12:55;19.30;99.90
2571;DHT22;1295;51.130;6.732;2023-07-31T12:15:15;19.30;99.90
2571;DHT22;1295;51.130;6.732;2023-07-31T12:17:39;19.30;99.90
2571;DHT22;1295;51.130;6.732;2023-07-31T12:20:06;19.30;99.90
2571;DHT22;1295;51.130;6.732;2023-07-31T12:22:32;19.30;99.90
2571;DHT22;1295;51.130;6.732;2023-07-31T12:24:57;19.30;99.90
2571;DHT22;1295;51.130;6.732;2023-07-31T12:27:23;19.30;99.90
2571;DHT22;1295;51.130;6.732;2023-07-31T12:29:49;19.20;99.90
2571;DHT22;1295;51.130;6.732;2023-07-31T12:32:23;19.20;99.90
2571;DHT22;1295;51.130;6.732;2023-07-31T12:34:48;19.20;99.90
2571;DHT22;1295;51.130;6.732;2023-07-31T12:37:14;19.20;99.90
2571;DHT22;1295;51.130;6.732;2023-07-31T12:39:39;19.20;99.90
2571;DHT22;1295;51.130;6.732;2023-07-31T12:42:05;19.30;99.90
2571;DHT22;1295;51.130;6.732;2023-07-31T12:44:32;19.20;99.90
2571;DHT22;1295;51.130;6.732;2023-07-31T12:46:58;19.20;99.90
2571;DHT22;1295;51.130;6.732;2023-07-31T12:49:23;19.20;99.90
2571;DHT22;1295;51.130;6.732;2023-07-31T12:51:49;19.40;99.90
2571;DHT22;1295;51.130;6.732;2023-07-31T12:54:15;19.40;99.90
2571;DHT22;1295;51.130;6.732;2023-07-31T12:56:40;19.40;99.90
2571;DHT22;1295;51.130;6.732;2023-07-31T12:59:06;19.50;99.90
2571;DHT22;1295;51.130;6.732;2023-07-31T13:01:32;19.50;99.90
2571;DHT22;1295;51.130;6.732;2023-07-31T13:03:57;19.50;99.90
2571;DHT22;1295;51.130;6.732;2023-07-31T13:06:24;19.50;99.90
2571;DHT22;1295;51.130;6.732;2023-07-31T13:08:49;19.50;99.90
2571;DHT22;1295;51.130;6.732;2023-07-31T13:11:15;19.50;99.90
2571;DHT22;1295;51.130;6.732;2023-07-31T13:13:40;19.50;99.90
2571;DHT22;1295;51.130;6.732;2023-07-31T13:16:06;19.50;99.90
2571;DHT22;1295;51.130;6.732;2023-07-31T13:18:32;19.50;99.90
2571;DHT22;1295;51.130;6.732;2023-07-31T13:20:57;19.50;99.90
2571;DHT22;1295;51.130;6.732;2023-07-31T13:23:23;19.60;99.90
2571;DHT22;1295;51.130;6.732;2023-07-31T13:25:48;19.60;99.90
2571;DHT22;1295;51.130;6.732;2023-07-31T13:28:14;19.60;99.90
2571;DHT22;1295;51.130;6.732;2023-07-31T13:30:40;19.80;99.90
2571;DHT22;1295;51.130;6.732;2023-07-31T13:33:06;19.90;99.90
2571;DHT22;1295;51.130;6.732;2023-07-31T13:35:32;19.80;99.90
2571;DHT22;1295;51.130;6.732;2023-07-31T13:37:58;19.80;99.90
2571;DHT22;1295;51.130;6.732;2023-07-31T13:40:24;19.80;99.90
2571;DHT22;1295;51.130;6.732;2023-07-31T13:42:49;20.00;99.90
2571;DHT22;1295;51.130;6.732;2023-07-31T13:45:15;19.90;99.90
2571;DHT22;1295;51.130;6.732;2023-07-31T13:47:41;20.10;99.90
2571;DHT22;1295;51.130;6.732;2023-07-31T13:50:07;20.10;99.90
2571;DHT22;1295;51.130;6.732;2023-07-31T13:52:33;20.10;99.90
2571;DHT22;1295;51.130;6.732;2023-07-31T13:54:58;20.40;99.90
2571;DHT22;1295;51.130;6.732;2023-07-31T13:57:24;20.40;99.90
2571;DHT22;1295;51.130;6.732;2023-07-31T13:59:50;20.10;99.90
2571;DHT22;1295;51.130;6.732;2023-07-31T14:02:15;20.10;99.90
2571;DHT22;1295;51.130;6.732;2023-07-31T14:04:47;20.10;99.90
2571;DHT22;1295;51.130;6.732;2023-07-31T14:07:23;20.00;99.90
2571;DHT22;1295;51.130;6.732;2023-07-31T14:09:49;20.00;99.90
2571;DHT22;1295;51.130;6.732;2023-07-31T14:12:15;20.00;99.90
2571;DHT22;1295;51.130;6.732;2023-07-31T14:14:46;19.90;99.90
2571;DHT22;1295;51.130;6.732;2023-07-31T14:17:22;19.90;99.90
2571;DHT22;1295;51.130;6.732;2023-07-31T14:19:47;19.90;99.90
2571;DHT22;1295;51.130;6.732;2023-07-31T14:22:13;19.90;99.90
2571;DHT22;1295;51.130;6.732;2023-07-31T14:24:39;19.90;99.90
2571;DHT22;1295;51.130;6.732;2023-07-31T14:27:04;19.80;99.90
2571;DHT22;1295;51.130;6.732;2023-07-31T14:29:30;19.90;99.90
2571;DHT22;1295;51.130;6.732;2023-07-31T14:31:56;19.90;99.90
2571;DHT22;1295;51.130;6.732;2023-07-31T14:34:22;20.00;99.90
2571;DHT22;1295;51.130;6.732;2023-07-31T14:36:47;20.00;99.90
2571;DHT22;1295;51.130;6.732;2023-07-31T14:39:13;19.90;99.90
2571;DHT22;1295;51.130;6.732;2023-07-31T14:41:39;20.10;99.90
2571;DHT22;1295;51.130;6.732;2023-07-31T14:44:04;20.10;99.90
2571;DHT22;1295;51.130;6.732;2023-07-31T14:46:30;20.20;99.90
2571;DHT22;1295;51.130;6.732;2023-07-31T14:48:55;20.20;99.90
2571;DHT22;1295;51.130;6.732;2023-07-31T14:51:21;20.10;99.90
2571;DHT22;1295;51.130;6.732;2023-07-31T14:53:47;20.20;99.90
2571;DHT22;1295;51.130;6.732;2023-07-31T14:56:12;20.20;99.90
2571;DHT22;1295;51.130;6.732;2023-07-31T14:58:38;20.20;99.90
2571;DHT22;1295;51.130;6.732;2023-07-31T15:01:03;20.10;99.90
2571;DHT22;1295;51.130;6.732;2023-07-31T15:03:30;20.10;99.90
2571;DHT22;1295;51.130;6.732;2023-07-31T15:05:55;20.00;99.90
2571;DHT22;1295;51.130;6.732;2023-07-31T15:08:21;20.20;99.90
2571;DHT22;1295;51.130;6.732;2023-07-31T15:10:47;20.10;99.90
2571;DHT22;1295;51.130;6.732;2023-07-31T15:13:13;20.10;99.90
2571;DHT22;1295;51.130;6.732;2023-07-31T15:15:40;20.00;99.90
2571;DHT22;1295;51.130;6.732;2023-07-31T15:18:05;20.00;99.90
2571;DHT22;1295;51.130;6.732;2023-07-31T15:20:31;20.10;99.90
2571;DHT22;1295;51.130;6.732;2023-07-31T15:22:56;20.00;99.90
2571;DHT22;1295;51.130;6.732;2023-07-31T15:25:22;20.10;99.90
2571;DHT22;1295;51.130;6.732;2023-07-31T15:27:48;20.10;99.90
2571;DHT22;1295;51.130;6.732;2023-07-31T15:30:13;20.00;99.90
2571;DHT22;1295;51.130;6.732;2023-07-31T15:32:39;20.00;99.90
2571;DHT22;1295;51.130;6.732;2023-07-31T15:35:06;20.00;99.90
2571;DHT22;1295;51.130;6.732;2023-07-31T15:37:32;20.00;99.90
2571;DHT22;1295;51.130;6.732;2023-07-31T15:39:58;20.00;99.90
2571;DHT22;1295;51.130;6.732;2023-07-31T15:42:23;20.00;99.90
2571;DHT22;1295;51.130;6.732;2023-07-31T15:44:49;19.90;99.90
2571;DHT22;1295;51.130;6.732;2023-07-31T15:47:15;19.90;99.90
2571;DHT22;1295;51.130;6.732;2023-07-31T15:49:40;19.90;99.90
2571;DHT22;1295;51.130;6.732;2023-07-31T15:52:06;19.80;99.90
2571;DHT22;1295;51.130;6.732;2023-07-31T15:54:33;19.80;99.90
2571;DHT22;1295;51.130;6.732;2023-07-31T15:56:58;19.80;99.90
2571;DHT22;1295;51.130;6.732;2023-07-31T15:59:24;19.80;99.90